createdAt,value
2022-08-17T00:01:51.730Z,10.57
2022-08-17T00:04:20.479Z,8.90
2022-08-17T00:06:49.281Z,12.05
2022-08-17T00:09:19.014Z,10.27
2022-08-17T00:12:40.660Z,11.35
2022-08-17T00:14:36.568Z,9.65
2022-08-17T00:17:04.783Z,11.05
2022-08-17T00:24:47.683Z,14.45
2022-08-17T00:27:14.499Z,12.50
2022-08-17T00:29:42.224Z,11.80
2022-08-17T00:33:12.093Z,12.88
2022-08-17T00:34:55.786Z,15.18
2022-08-17T00:37:22.653Z,14.18
2022-08-17T00:39:49.412Z,15.00
2022-08-17T00:42:19.681Z,15.05
2022-08-17T00:44:46.550Z,11.88
2022-08-17T00:47:13.218Z,17.20
2022-08-17T00:49:40.238Z,20.30
2022-08-17T00:52:15.753Z,12.68
2022-08-17T00:54:47.122Z,17.30
2022-08-17T00:57:34.794Z,16.08
2022-08-17T01:00:08.949Z,10.93
2022-08-17T01:02:42.754Z,12.13
2022-08-17T01:05:20.886Z,13.48
2022-08-17T01:07:51.022Z,16.42
2022-08-17T01:10:59.360Z,12.70
2022-08-17T01:13:11.357Z,12.20
2022-08-17T01:15:46.189Z,12.85
2022-08-17T01:18:14.210Z,16.40
2022-08-17T01:20:52.940Z,16.63
2022-08-17T01:23:22.443Z,12.93
2022-08-17T01:25:55.291Z,15.55
2022-08-17T01:28:52.832Z,14.07
2022-08-17T01:31:12.605Z,13.82
2022-08-17T01:33:39.551Z,15.45
2022-08-17T01:36:07.652Z,14.50
2022-08-17T01:38:39.356Z,14.30
2022-08-17T01:41:14.380Z,14.80
2022-08-17T01:43:49.134Z,16.30
2022-08-17T01:46:23.426Z,12.13
2022-08-17T01:48:51.571Z,13.55
2022-08-17T01:53:52.534Z,12.63
2022-08-17T01:56:23.011Z,14.70
2022-08-17T01:58:50.138Z,15.30
2022-08-17T02:01:23.923Z,15.02
2022-08-17T02:03:54.561Z,13.52
2022-08-17T02:06:29.833Z,15.57
2022-08-17T02:09:03.052Z,13.52
2022-08-17T02:11:32.822Z,13.55
2022-08-17T02:14:03.504Z,16.33
2022-08-17T02:16:37.332Z,13.77
2022-08-17T02:19:09.516Z,15.10
2022-08-17T02:21:38.203Z,12.75
2022-08-17T02:24:11.505Z,14.70
2022-08-17T02:26:42.958Z,11.68
2022-08-17T02:29:12.129Z,12.02
2022-08-17T02:31:43.853Z,13.38
2022-08-17T02:34:16.089Z,11.77
2022-08-17T02:36:45.122Z,11.65
2022-08-17T02:39:14.025Z,10.93
2022-08-17T02:41:42.827Z,13.15
2022-08-17T02:44:13.851Z,15.50
2022-08-17T02:47:04.601Z,15.85
2022-08-17T02:49:32.561Z,14.75
2022-08-17T02:52:02.988Z,17.60
2022-08-17T02:54:41.233Z,15.52
2022-08-17T02:57:15.813Z,20.67
2022-08-17T02:59:48.766Z,13.68
2022-08-17T03:02:17.480Z,13.35
2022-08-17T03:04:45.302Z,14.52
2022-08-17T03:07:16.285Z,11.65
2022-08-17T03:09:45.579Z,11.63
2022-08-17T03:12:18.198Z,12.02
2022-08-17T03:14:57.194Z,12.85
2022-08-17T03:20:16.644Z,13.00
2022-08-17T03:22:53.643Z,14.07
2022-08-17T03:28:12.137Z,18.33
2022-08-17T03:30:43.246Z,14.50
2022-08-17T03:33:13.656Z,15.25
2022-08-17T03:35:42.096Z,15.25
2022-08-17T03:38:12.635Z,18.52
2022-08-17T03:40:57.160Z,14.45
2022-08-17T03:43:31.239Z,16.00
2022-08-17T03:46:28.943Z,13.85
2022-08-17T03:49:27.997Z,14.05
2022-08-17T03:52:15.962Z,16.42
2022-08-17T03:55:02.598Z,15.80
2022-08-17T03:57:30.401Z,15.52
2022-08-17T03:59:57.310Z,18.27
2022-08-17T04:02:30.386Z,13.98
2022-08-17T04:04:57.525Z,17.27
2022-08-17T04:07:27.488Z,19.13
2022-08-17T04:09:54.816Z,18.70
2022-08-17T04:12:23.674Z,18.35
2022-08-17T04:14:53.763Z,15.98
2022-08-17T04:17:27.062Z,15.27
2022-08-17T04:19:54.686Z,15.40
2022-08-17T04:22:31.095Z,17.40
2022-08-17T04:25:14.645Z,16.50
2022-08-17T04:27:41.257Z,16.45
2022-08-17T04:30:08.710Z,16.00
2022-08-17T04:33:18.071Z,16.90
2022-08-17T04:35:47.863Z,20.48
2022-08-17T04:38:19.371Z,17.17
2022-08-17T04:41:05.068Z,18.23
2022-08-17T04:43:33.990Z,22.48
2022-08-17T04:46:07.171Z,18.00
2022-08-17T04:48:40.178Z,18.55
2022-08-17T04:51:23.202Z,22.08
2022-08-17T04:53:54.489Z,24.95
2022-08-17T04:56:23.573Z,20.60
2022-08-17T04:58:52.995Z,20.95
2022-08-17T05:01:24.025Z,24.67
2022-08-17T05:03:52.911Z,21.17
2022-08-17T05:06:19.753Z,25.27
2022-08-17T05:08:46.585Z,23.70
2022-08-17T05:11:13.342Z,21.58
2022-08-17T05:13:40.176Z,22.77
2022-08-17T05:16:07.199Z,24.30
2022-08-17T05:18:33.967Z,23.15
2022-08-17T05:21:00.898Z,25.33
2022-08-17T05:23:37.843Z,24.98
2022-08-17T05:26:26.153Z,25.73
2022-08-17T05:29:00.538Z,26.50
2022-08-17T05:31:30.578Z,23.40
2022-08-17T05:33:57.772Z,26.05
2022-08-17T05:36:42.950Z,29.48
2022-08-17T05:39:17.054Z,27.15
2022-08-17T05:41:46.100Z,28.40
2022-08-17T05:44:12.739Z,28.42
2022-08-17T05:46:42.015Z,24.17
2022-08-17T05:49:09.581Z,28.52
2022-08-17T05:52:04.446Z,29.90
2022-08-17T05:55:13.135Z,31.38
2022-08-17T05:57:56.258Z,30.02
2022-08-17T06:00:31.899Z,37.20
2022-08-17T06:03:06.826Z,35.08
2022-08-17T06:05:55.404Z,43.67
2022-08-17T06:09:00.358Z,40.00
2022-08-17T06:11:53.971Z,43.95
2022-08-17T06:14:32.486Z,46.58
2022-08-17T06:17:04.901Z,46.08
2022-08-17T06:19:47.447Z,49.42
2022-08-17T06:22:16.660Z,53.17
2022-08-17T06:24:52.097Z,54.08
2022-08-17T06:27:21.792Z,51.13
2022-08-17T06:29:57.446Z,57.38
2022-08-17T06:32:25.270Z,56.33
2022-08-17T06:34:53.152Z,63.13
2022-08-17T06:37:42.953Z,57.75
2022-08-17T06:40:12.518Z,59.30
2022-08-17T06:43:05.850Z,59.95
2022-08-17T06:45:49.400Z,60.05
2022-08-17T06:48:25.566Z,63.00
2022-08-17T06:51:00.774Z,61.65
2022-08-17T06:53:36.321Z,62.70
2022-08-17T06:56:19.597Z,58.78
2022-08-17T06:58:47.044Z,56.95
2022-08-17T07:01:31.728Z,60.90
2022-08-17T07:04:15.686Z,61.28
2022-08-17T07:06:53.661Z,59.42
2022-08-17T07:09:29.564Z,60.42
2022-08-17T07:12:18.372Z,53.42
2022-08-17T07:14:54.135Z,57.85
2022-08-17T07:17:46.654Z,58.83
2022-08-17T07:20:16.127Z,62.97
2022-08-17T07:22:58.157Z,60.03
2022-08-17T07:25:28.830Z,53.13
2022-08-17T07:28:00.256Z,50.72
2022-08-17T07:30:37.277Z,54.25
2022-08-17T07:33:20.513Z,49.08
2022-08-17T07:35:49.965Z,52.45
2022-08-17T07:38:29.205Z,50.20
2022-08-17T07:41:02.262Z,50.05
2022-08-17T07:43:37.573Z,44.45
2022-08-17T07:46:43.110Z,44.72
2022-08-17T07:49:09.744Z,43.70
2022-08-17T07:51:48.360Z,42.97
2022-08-17T07:54:15.197Z,40.92
2022-08-17T07:56:49.984Z,42.15
2022-08-17T07:59:33.809Z,42.55
2022-08-17T08:02:10.144Z,43.80
2022-08-17T08:05:00.709Z,39.10
2022-08-17T08:08:05.933Z,36.75
2022-08-17T08:10:36.732Z,39.47
2022-08-17T08:13:30.812Z,45.33
2022-08-17T08:16:14.811Z,35.55
2022-08-17T08:18:54.772Z,43.55
2022-08-17T08:21:54.805Z,39.38
2022-08-17T08:24:42.873Z,34.35
2022-08-17T08:29:48.325Z,31.05
2022-08-17T08:32:35.350Z,26.98
2022-08-17T08:35:44.673Z,30.20
2022-08-17T08:38:23.566Z,26.83
2022-08-17T08:40:53.339Z,28.40
2022-08-17T08:43:52.325Z,26.48
2022-08-17T08:46:22.981Z,27.48
2022-08-17T08:49:45.143Z,28.55
2022-08-17T08:52:40.727Z,25.33
2022-08-17T08:55:26.969Z,25.00
2022-08-17T08:58:02.896Z,27.25
2022-08-17T09:00:35.792Z,31.98
2022-08-17T09:03:52.691Z,25.70
2022-08-17T09:06:38.532Z,28.20
2022-08-17T09:09:43.757Z,24.45
2022-08-17T09:12:33.194Z,27.58
2022-08-17T09:15:16.966Z,24.15
2022-08-17T09:18:08.596Z,24.27
2022-08-17T09:20:50.157Z,27.50
2022-08-17T09:24:06.077Z,23.88
2022-08-17T09:26:37.998Z,20.98
2022-08-17T09:29:09.943Z,25.15
2022-08-17T09:32:04.017Z,21.17
2022-08-17T09:34:36.463Z,20.23
2022-08-17T09:37:13.166Z,23.40
2022-08-17T09:39:48.317Z,19.95
2022-08-17T09:42:23.768Z,18.15
2022-08-17T09:45:23.924Z,22.23
2022-08-17T09:47:58.039Z,15.30
2022-08-17T09:51:03.159Z,22.10
2022-08-17T09:53:19.819Z,15.23
2022-08-17T09:56:11.227Z,17.23
2022-08-17T09:59:17.345Z,18.75
2022-08-17T10:01:50.574Z,15.75
2022-08-17T10:04:32.306Z,16.88
2022-08-17T10:07:26.117Z,21.17
2022-08-17T10:10:19.794Z,17.80
2022-08-17T10:12:49.526Z,17.73
2022-08-17T10:15:44.260Z,14.15
2022-08-17T10:18:25.427Z,14.05
2022-08-17T10:21:23.705Z,12.93
2022-08-17T10:25:21.702Z,16.75
2022-08-17T10:27:54.888Z,13.70
2022-08-17T10:30:25.277Z,12.45
2022-08-17T10:32:57.122Z,12.43
2022-08-17T10:35:34.095Z,11.00
2022-08-17T10:38:38.215Z,14.18
2022-08-17T10:41:40.414Z,19.67
2022-08-17T10:44:39.449Z,13.65
2022-08-17T10:47:15.078Z,15.85
2022-08-17T10:49:54.030Z,15.45
2022-08-17T10:52:21.959Z,10.75
2022-08-17T10:54:51.440Z,10.15
2022-08-17T10:57:31.908Z,12.55
2022-08-17T11:00:02.919Z,7.72
2022-08-17T11:02:50.596Z,11.73
2022-08-17T11:08:27.588Z,10.73
2022-08-17T11:11:12.427Z,10.98
2022-08-17T11:13:50.051Z,8.25
2022-08-17T11:16:35.533Z,11.38
2022-08-17T11:19:14.281Z,8.55
2022-08-17T11:22:07.477Z,12.98
2022-08-17T11:24:55.853Z,7.30
2022-08-17T11:27:36.637Z,9.80
2022-08-17T11:30:11.205Z,9.65
2022-08-17T11:32:54.748Z,11.52
2022-08-17T11:35:21.843Z,11.57
2022-08-17T11:38:16.002Z,11.10
2022-08-17T11:40:59.981Z,13.18
2022-08-17T11:43:44.479Z,11.00
2022-08-17T11:46:54.230Z,9.85
2022-08-17T11:50:03.757Z,10.07
2022-08-17T11:52:47.011Z,8.60
2022-08-17T11:55:44.763Z,14.80
2022-08-17T11:58:29.714Z,8.55
2022-08-17T12:00:59.570Z,21.70
2022-08-17T12:03:54.310Z,13.02
2022-08-17T12:06:44.243Z,14.07
2022-08-17T12:09:14.135Z,11.88
2022-08-17T12:12:13.728Z,11.88
2022-08-17T12:17:40.891Z,10.23
2022-08-17T12:20:40.610Z,7.32
2022-08-17T12:23:16.374Z,13.48
2022-08-17T12:26:15.246Z,13.43
2022-08-17T12:28:46.516Z,8.82
2022-08-17T12:31:26.683Z,7.28
2022-08-17T12:33:54.123Z,16.08
2022-08-17T12:36:24.851Z,14.45
2022-08-17T12:39:14.070Z,17.42
2022-08-17T12:41:47.219Z,15.07
2022-08-17T12:44:21.757Z,11.32
2022-08-17T12:47:01.862Z,7.63
2022-08-17T12:49:37.045Z,11.18
2022-08-17T12:52:17.036Z,6.63
2022-08-17T12:54:51.425Z,10.05
2022-08-17T12:57:31.351Z,7.15
2022-08-17T13:00:09.382Z,11.07
2022-08-17T13:05:17.949Z,6.72
2022-08-17T13:07:46.648Z,6.88
2022-08-17T13:10:24.268Z,11.10
2022-08-17T13:12:52.962Z,12.18
2022-08-17T13:15:29.652Z,7.45
2022-08-17T13:17:59.313Z,6.28
2022-08-17T13:20:26.525Z,7.50
2022-08-17T13:22:57.209Z,7.78
2022-08-17T13:25:25.911Z,10.77
2022-08-17T13:27:54.323Z,13.35
2022-08-17T13:30:28.057Z,11.48
2022-08-17T13:32:57.091Z,8.15
2022-08-17T13:35:40.371Z,10.23
2022-08-17T13:38:15.273Z,8.55
2022-08-17T13:40:50.221Z,11.10
2022-08-17T13:43:48.627Z,12.52
2022-08-17T13:46:26.354Z,7.95
2022-08-17T13:49:06.044Z,4.82
2022-08-17T13:51:36.365Z,6.22
2022-08-17T13:54:05.684Z,13.55
2022-08-17T13:57:06.771Z,7.20
2022-08-17T13:59:55.196Z,11.57
2022-08-17T14:02:22.721Z,9.57
2022-08-17T14:04:53.893Z,11.75
2022-08-17T14:07:27.168Z,9.23
2022-08-17T14:09:57.930Z,7.97
2022-08-17T14:12:26.923Z,7.32
2022-08-17T14:14:59.612Z,15.82
2022-08-17T14:17:29.445Z,14.38
2022-08-17T14:19:56.176Z,13.57
2022-08-17T14:22:28.642Z,9.52
2022-08-17T14:24:57.841Z,8.93
2022-08-17T14:27:28.113Z,12.05
2022-08-17T14:29:55.974Z,10.05
2022-08-17T14:32:26.755Z,8.00
2022-08-17T14:34:56.932Z,7.93
2022-08-17T14:37:27.882Z,8.13
2022-08-17T14:39:57.069Z,2.90
2022-08-17T14:42:26.357Z,1.35
2022-08-17T14:44:54.966Z,4.97
2022-08-17T14:47:22.219Z,4.30
2022-08-17T14:49:49.302Z,15.82
2022-08-17T14:52:24.121Z,15.38
2022-08-17T14:54:53.061Z,12.02
2022-08-17T14:57:25.833Z,11.20
2022-08-17T15:00:02.293Z,7.32
2022-08-17T15:02:31.010Z,4.07
2022-08-17T15:05:05.588Z,11.45
2022-08-17T15:07:32.395Z,8.15
2022-08-17T15:10:01.459Z,7.80
2022-08-17T15:12:32.694Z,11.18
2022-08-17T15:15:01.121Z,7.53
2022-08-17T15:17:43.928Z,9.00
2022-08-17T15:20:18.130Z,4.28
2022-08-17T15:22:49.752Z,8.02
2022-08-17T15:25:19.365Z,5.80
2022-08-17T15:27:46.207Z,5.05
2022-08-17T15:30:13.815Z,8.18
2022-08-17T15:32:51.396Z,9.10
2022-08-17T15:35:28.315Z,10.80
2022-08-17T15:38:10.655Z,7.25
2022-08-17T15:40:40.484Z,8.30
2022-08-17T15:43:14.016Z,13.05
2022-08-17T15:45:41.028Z,7.63
2022-08-17T15:48:08.024Z,12.32
2022-08-17T15:50:35.198Z,9.07
2022-08-17T15:53:03.579Z,11.95
2022-08-17T15:55:32.187Z,9.00
2022-08-17T15:57:59.285Z,8.93
2022-08-17T16:00:28.462Z,10.40
2022-08-17T16:03:20.199Z,7.47
2022-08-17T16:05:43.543Z,8.98
2022-08-17T16:08:11.130Z,4.82
2022-08-17T16:10:38.075Z,7.35
2022-08-17T16:13:05.040Z,6.50
2022-08-17T16:15:51.042Z,8.50
2022-08-17T16:18:31.193Z,7.25
2022-08-17T16:21:23.548Z,7.35
2022-08-17T16:23:53.676Z,12.55
2022-08-17T16:26:22.923Z,13.93
2022-08-17T16:28:50.283Z,13.20
2022-08-17T16:31:17.327Z,17.10
2022-08-17T16:34:03.873Z,15.93
2022-08-17T16:38:59.399Z,9.80
2022-08-17T16:41:45.265Z,9.57
2022-08-17T16:44:17.166Z,10.98
2022-08-17T16:46:45.572Z,14.63
2022-08-17T16:49:29.655Z,9.80
2022-08-17T16:54:28.480Z,9.90
2022-08-17T16:56:55.788Z,11.32
2022-08-17T16:59:31.063Z,8.60
2022-08-17T17:02:12.966Z,10.40
2022-08-17T17:05:17.801Z,10.05
2022-08-17T17:08:09.208Z,12.23
2022-08-17T17:10:44.759Z,10.63
2022-08-17T17:13:34.501Z,11.63
2022-08-17T17:16:07.174Z,9.32
2022-08-17T17:18:49.115Z,9.88
2022-08-17T17:21:25.199Z,9.95
2022-08-17T17:24:01.107Z,18.73
2022-08-17T17:26:48.448Z,9.25
2022-08-17T17:29:27.371Z,10.15
2022-08-17T17:32:13.976Z,15.00
2022-08-17T17:34:50.873Z,21.08
2022-08-17T17:37:26.210Z,12.60
2022-08-17T17:40:00.102Z,12.55
2022-08-17T17:42:31.545Z,11.95
2022-08-17T17:45:20.120Z,10.60
2022-08-17T17:47:47.808Z,11.43
2022-08-17T17:50:18.056Z,17.10
2022-08-17T17:53:04.494Z,12.93
2022-08-17T17:55:31.159Z,8.70
2022-08-17T17:58:19.488Z,11.05
2022-08-17T18:00:54.089Z,7.45
2022-08-17T18:04:00.477Z,9.68
2022-08-17T18:06:45.373Z,11.73
2022-08-17T18:09:12.735Z,10.93
2022-08-17T18:11:59.051Z,10.35
2022-08-17T18:14:36.947Z,8.85
2022-08-17T18:17:03.966Z,10.88
2022-08-17T18:19:31.718Z,12.85
2022-08-17T18:22:07.860Z,12.07
2022-08-17T18:24:45.038Z,16.13
2022-08-17T18:27:34.009Z,12.77
2022-08-17T18:30:20.924Z,11.43
2022-08-17T18:32:48.046Z,13.05
2022-08-17T18:35:14.851Z,13.70
2022-08-17T18:37:44.933Z,13.35
2022-08-17T18:40:37.664Z,14.98
2022-08-17T18:43:24.349Z,16.13
2022-08-17T18:45:57.746Z,15.45
2022-08-17T18:48:33.082Z,13.93
2022-08-17T18:51:40.733Z,10.60
2022-08-17T18:54:21.287Z,9.15
2022-08-17T18:56:56.517Z,13.63
2022-08-17T18:59:28.757Z,13.65
2022-08-17T19:02:27.337Z,11.68
2022-08-17T19:05:26.002Z,8.02
2022-08-17T19:07:53.133Z,14.88
2022-08-17T19:10:28.280Z,9.25
2022-08-17T19:13:12.462Z,11.98
2022-08-17T19:16:15.046Z,11.52
2022-08-17T19:18:51.066Z,10.50
2022-08-17T19:21:40.322Z,13.35
2022-08-17T19:24:21.954Z,11.50
2022-08-17T19:26:56.767Z,12.40
2022-08-17T19:29:43.738Z,9.35
2022-08-17T19:32:14.109Z,14.55
2022-08-17T19:34:42.971Z,13.60
2022-08-17T19:37:28.140Z,13.07
2022-08-17T19:40:35.033Z,12.00
2022-08-17T19:43:21.963Z,10.77
2022-08-17T19:46:11.867Z,11.65
2022-08-17T19:49:06.709Z,12.88
2022-08-17T19:51:51.995Z,10.40
2022-08-17T19:54:35.073Z,13.07
2022-08-17T19:57:14.506Z,12.88
2022-08-17T19:59:57.044Z,13.77
2022-08-17T20:02:41.661Z,9.63
2022-08-17T20:05:17.348Z,10.10
2022-08-17T20:07:50.191Z,10.95
2022-08-17T20:10:34.536Z,8.70
2022-08-17T20:13:08.259Z,9.55
2022-08-17T20:15:39.570Z,10.02
2022-08-17T20:18:13.367Z,8.75
2022-08-17T20:20:58.584Z,6.85
2022-08-17T20:24:05.947Z,8.02
2022-08-17T20:30:11.850Z,10.23
2022-08-17T20:32:48.869Z,8.50
2022-08-17T20:35:19.957Z,13.10
2022-08-17T20:38:04.627Z,12.65
2022-08-17T20:40:35.652Z,8.65
2022-08-17T20:43:33.719Z,10.73
2022-08-17T20:46:41.488Z,8.85
2022-08-17T20:52:03.007Z,13.55
2022-08-17T20:57:29.761Z,17.38
2022-08-17T20:59:59.468Z,7.03
2022-08-17T21:02:28.468Z,13.35
2022-08-17T21:05:02.007Z,9.60
2022-08-17T21:07:42.990Z,6.72
2022-08-17T21:10:14.084Z,10.80
2022-08-17T21:12:42.319Z,12.70
2022-08-17T21:17:56.584Z,12.98
2022-08-17T21:20:33.209Z,12.13
2022-08-17T21:23:30.013Z,12.95
2022-08-17T21:26:35.785Z,15.25
2022-08-17T21:29:31.912Z,15.38
2022-08-17T21:31:59.737Z,12.13
2022-08-17T21:34:43.153Z,13.60
2022-08-17T21:37:18.905Z,23.73
2022-08-17T21:39:51.296Z,12.48
2022-08-17T21:42:25.156Z,9.88
2022-08-17T21:44:54.996Z,13.82
2022-08-17T21:47:26.682Z,11.60
2022-08-17T21:49:55.240Z,12.90
2022-08-17T21:52:26.977Z,17.58
2022-08-17T21:54:57.069Z,11.60
2022-08-17T21:57:29.421Z,13.68
2022-08-17T22:00:02.159Z,14.38
2022-08-17T22:02:34.450Z,13.30
2022-08-17T22:05:06.849Z,16.50
2022-08-17T22:07:58.736Z,17.17
2022-08-17T22:10:45.189Z,12.10
2022-08-17T22:13:18.095Z,11.98
2022-08-17T22:16:15.329Z,13.70
2022-08-17T22:18:57.638Z,13.02
2022-08-17T22:21:25.205Z,10.25
2022-08-17T22:24:04.558Z,15.98
2022-08-17T22:27:02.240Z,14.05
2022-08-17T22:29:53.195Z,11.25
2022-08-17T22:32:37.464Z,11.55
2022-08-17T22:35:26.701Z,11.98
2022-08-17T22:37:53.501Z,11.90
2022-08-17T22:40:32.816Z,12.98
2022-08-17T22:43:02.533Z,9.50
2022-08-17T22:45:30.498Z,11.70
2022-08-17T22:48:00.640Z,15.05
2022-08-17T22:50:33.134Z,9.00
2022-08-17T22:53:31.617Z,14.60
2022-08-17T22:56:16.937Z,11.65
2022-08-17T22:59:16.303Z,9.82
2022-08-17T23:01:45.629Z,13.85
2022-08-17T23:04:31.366Z,12.98
2022-08-17T23:06:58.343Z,12.52
2022-08-17T23:09:25.101Z,11.02
2022-08-17T23:11:58.602Z,11.10
2022-08-17T23:14:31.776Z,10.02
2022-08-17T23:17:01.840Z,11.32
2022-08-17T23:19:31.746Z,12.30
2022-08-17T23:22:00.146Z,14.52
2022-08-17T23:24:29.960Z,17.23
2022-08-17T23:26:58.159Z,13.52
2022-08-17T23:29:29.415Z,9.25
2022-08-17T23:32:00.066Z,6.75
2022-08-17T23:34:28.151Z,10.00
2022-08-17T23:36:55.850Z,17.65
2022-08-17T23:39:24.514Z,7.82
2022-08-17T23:41:54.637Z,12.57
2022-08-17T23:44:26.633Z,12.68
2022-08-17T23:46:54.136Z,10.25
2022-08-17T23:49:21.045Z,9.63
2022-08-17T23:51:48.941Z,10.35
2022-08-17T23:54:46.710Z,13.02
2022-08-17T23:57:17.604Z,10.80
2022-08-17T23:59:44.967Z,7.00
